sensor_id;sensor_type;location;lat;lon;timestamp;pressure;altitude;pressure_sealevel;temperature;humidity
77019;BME280;66044;53.142;17.962;2023-10-08T00:01:09;100853.55;;;11.38;75.72
77019;BME280;66044;53.142;17.962;2023-10-08T00:03:43;100855.98;;;11.37;75.90
77019;BME280;66044;53.142;17.962;2023-10-08T00:06:18;100877.83;;;11.38;75.68
77019;BME280;66044;53.142;17.962;2023-10-08T00:08:47;100877.13;;;11.38;75.73
77019;BME280;66044;53.142;17.962;2023-10-08T00:11:14;100881.21;;;11.38;75.90
77019;BME280;66044;53.142;17.962;2023-10-08T00:13:42;100877.54;;;11.38;75.93
77019;BME280;66044;53.142;17.962;2023-10-08T00:16:11;100878.33;;;11.38;75.78
77019;BME280;66044;53.142;17.962;2023-10-08T00:18:38;100879.65;;;11.39;75.53
77019;BME280;66044;53.142;17.962;2023-10-08T00:21:08;100888.05;;;11.39;75.61
77019;BME280;66044;53.142;17.962;2023-10-08T00:23:37;100884.02;;;11.39;75.88
77019;BME280;66044;53.142;17.962;2023-10-08T00:26:17;100868.71;;;11.38;75.77
77019;BME280;66044;53.142;17.962;2023-10-08T00:28:47;100863.12;;;11.37;75.80
77019;BME280;66044;53.142;17.962;2023-10-08T00:31:14;100861.77;;;11.36;75.49
77019;BME280;66044;53.142;17.962;2023-10-08T00:33:43;100857.65;;;11.34;75.53
77019;BME280;66044;53.142;17.962;2023-10-08T00:36:11;100864.73;;;11.33;75.55
77019;BME280;66044;53.142;17.962;2023-10-08T00:38:46;100877.17;;;11.31;75.54
77019;BME280;66044;53.142;17.962;2023-10-08T00:41:18;100896.73;;;11.28;75.27
77019;BME280;66044;53.142;17.962;2023-10-08T00:43:48;100904.41;;;11.25;75.15
77019;BME280;66044;53.142;17.962;2023-10-08T00:46:16;100911.73;;;11.20;74.25
77019;BME280;66044;53.142;17.962;2023-10-08T00:48:52;100924.66;;;11.15;73.81
77019;BME280;66044;53.142;17.962;2023-10-08T00:51:25;100931.02;;;11.11;73.04
77019;BME280;66044;53.142;17.962;2023-10-08T00:54:01;100930.67;;;11.08;73.15
77019;BME280;66044;53.142;17.962;2023-10-08T00:56:35;100930.39;;;11.05;72.85
77019;BME280;66044;53.142;17.962;2023-10-08T00:59:12;100934.17;;;11.02;72.67
77019;BME280;66044;53.142;17.962;2023-10-08T01:01:45;100920.23;;;10.99;72.59
77019;BME280;66044;53.142;17.962;2023-10-08T01:04:19;100917.23;;;10.96;72.52
77019;BME280;66044;53.142;17.962;2023-10-08T01:06:54;100931.89;;;10.93;72.20
77019;BME280;66044;53.142;17.962;2023-10-08T01:09:30;100928.15;;;10.90;72.25
77019;BME280;66044;53.142;17.962;2023-10-08T01:14:34;100930.72;;;10.87;71.89
77019;BME280;66044;53.142;17.962;2023-10-08T01:17:00;100937.14;;;10.84;71.45
77019;BME280;66044;53.142;17.962;2023-10-08T01:19:26;100940.75;;;10.82;71.27
77019;BME280;66044;53.142;17.962;2023-10-08T01:21:54;100945.04;;;10.80;71.70
77019;BME280;66044;53.142;17.962;2023-10-08T01:24:24;100942.38;;;10.77;71.21
77019;BME280;66044;53.142;17.962;2023-10-08T01:26:53;100945.55;;;10.74;71.41
77019;BME280;66044;53.142;17.962;2023-10-08T01:29:19;100946.53;;;10.72;71.17
77019;BME280;66044;53.142;17.962;2023-10-08T01:31:46;100955.29;;;10.69;71.20
77019;BME280;66044;53.142;17.962;2023-10-08T01:34:15;100961.78;;;10.66;70.89
77019;BME280;66044;53.142;17.962;2023-10-08T01:36:43;100972.96;;;10.64;70.71
77019;BME280;66044;53.142;17.962;2023-10-08T01:39:12;100978.90;;;10.61;70.58
77019;BME280;66044;53.142;17.962;2023-10-08T01:41:44;100982.77;;;10.58;70.69
77019;BME280;66044;53.142;17.962;2023-10-08T01:44:11;100993.20;;;10.57;70.15
77019;BME280;66044;53.142;17.962;2023-10-08T01:46:39;101002.05;;;10.54;70.28
77019;BME280;66044;53.142;17.962;2023-10-08T01:49:09;101000.77;;;10.50;70.14
77019;BME280;66044;53.142;17.962;2023-10-08T01:51:41;100997.17;;;10.47;69.87
77019;BME280;66044;53.142;17.962;2023-10-08T01:54:13;101004.35;;;10.44;69.76
77019;BME280;66044;53.142;17.962;2023-10-08T01:56:41;101008.59;;;10.41;69.73
77019;BME280;66044;53.142;17.962;2023-10-08T01:59:09;101016.83;;;10.39;69.26
77019;BME280;66044;53.142;17.962;2023-10-08T02:01:36;101026.92;;;10.36;69.12
77019;BME280;66044;53.142;17.962;2023-10-08T02:04:03;101030.10;;;10.34;69.16
77019;BME280;66044;53.142;17.962;2023-10-08T02:06:29;101023.92;;;10.32;68.78
77019;BME280;66044;53.142;17.962;2023-10-08T02:08:57;101017.69;;;10.29;68.73
77019;BME280;66044;53.142;17.962;2023-10-08T02:11:24;101021.95;;;10.26;68.47
77019;BME280;66044;53.142;17.962;2023-10-08T02:13:53;101023.04;;;10.24;68.33
77019;BME280;66044;53.142;17.962;2023-10-08T02:16:20;101034.89;;;10.21;68.16
77019;BME280;66044;53.142;17.962;2023-10-08T02:18:48;101040.34;;;10.18;67.91
77019;BME280;66044;53.142;17.962;2023-10-08T02:21:17;101039.20;;;10.16;67.52
77019;BME280;66044;53.142;17.962;2023-10-08T02:23:44;101047.17;;;10.14;67.81
77019;BME280;66044;53.142;17.962;2023-10-08T02:26:10;101051.04;;;10.11;67.62
77019;BME280;66044;53.142;17.962;2023-10-08T02:28:37;101050.95;;;10.09;67.62
77019;BME280;66044;53.142;17.962;2023-10-08T02:31:05;101052.77;;;10.07;67.32
77019;BME280;66044;53.142;17.962;2023-10-08T02:33:31;101059.45;;;10.04;67.43
77019;BME280;66044;53.142;17.962;2023-10-08T02:35:58;101061.71;;;10.02;67.26
77019;BME280;66044;53.142;17.962;2023-10-08T02:38:27;101066.39;;;9.98;67.25
77019;BME280;66044;53.142;17.962;2023-10-08T02:40:54;101072.14;;;9.94;67.24
77019;BME280;66044;53.142;17.962;2023-10-08T02:43:25;101073.98;;;9.87;67.34
77019;BME280;66044;53.142;17.962;2023-10-08T02:45:52;101083.60;;;9.82;67.04
77019;BME280;66044;53.142;17.962;2023-10-08T02:48:20;101084.88;;;9.73;66.55
77019;BME280;66044;53.142;17.962;2023-10-08T02:50:47;101089.29;;;9.64;66.30
77019;BME280;66044;53.142;17.962;2023-10-08T02:53:14;101098.66;;;9.55;66.05
77019;BME280;66044;53.142;17.962;2023-10-08T02:55:52;101106.17;;;9.47;65.81
77019;BME280;66044;53.142;17.962;2023-10-08T02:58:20;101108.61;;;9.40;65.73
77019;BME280;66044;53.142;17.962;2023-10-08T03:00:48;101115.34;;;9.32;65.66
77019;BME280;66044;53.142;17.962;2023-10-08T03:03:15;101115.29;;;9.25;65.71
77019;BME280;66044;53.142;17.962;2023-10-08T03:05:46;101120.47;;;9.17;65.73
77019;BME280;66044;53.142;17.962;2023-10-08T03:08:14;101121.39;;;9.10;65.51
77019;BME280;66044;53.142;17.962;2023-10-08T03:10:46;101121.46;;;9.03;65.45
77019;BME280;66044;53.142;17.962;2023-10-08T03:13:16;101129.55;;;8.96;65.61
77019;BME280;66044;53.142;17.962;2023-10-08T03:15:43;101133.48;;;8.89;65.59
77019;BME280;66044;53.142;17.962;2023-10-08T03:18:28;101140.21;;;8.82;65.50
77019;BME280;66044;53.142;17.962;2023-10-08T03:21:06;101145.17;;;8.75;65.66
77019;BME280;66044;53.142;17.962;2023-10-08T03:23:47;101148.48;;;8.68;65.79
77019;BME280;66044;53.142;17.962;2023-10-08T03:26:15;101155.54;;;8.62;65.94
77019;BME280;66044;53.142;17.962;2023-10-08T03:29:01;101160.61;;;8.55;65.75
77019;BME280;66044;53.142;17.962;2023-10-08T03:31:31;101162.62;;;8.48;65.57
77019;BME280;66044;53.142;17.962;2023-10-08T03:34:14;101168.54;;;8.42;65.17
77019;BME280;66044;53.142;17.962;2023-10-08T03:36:42;101173.63;;;8.36;64.99
77019;BME280;66044;53.142;17.962;2023-10-08T03:39:15;101178.59;;;8.30;64.85
77019;BME280;66044;53.142;17.962;2023-10-08T03:41:43;101184.36;;;8.25;64.61
77019;BME280;66044;53.142;17.962;2023-10-08T03:44:26;101182.60;;;8.19;64.83
77019;BME280;66044;53.142;17.962;2023-10-08T03:46:55;101181.20;;;8.13;64.73
77019;BME280;66044;53.142;17.962;2023-10-08T03:49:23;101182.00;;;8.08;64.92
77019;BME280;66044;53.142;17.962;2023-10-08T03:51:51;101190.43;;;8.03;64.77
77019;BME280;66044;53.142;17.962;2023-10-08T03:54:20;101195.44;;;7.99;64.55
77019;BME280;66044;53.142;17.962;2023-10-08T03:56:56;101193.77;;;7.92;64.09
77019;BME280;66044;53.142;17.962;2023-10-08T03:59:23;101199.11;;;7.88;64.05
77019;BME280;66044;53.142;17.962;2023-10-08T04:02:01;101203.09;;;7.83;63.91
77019;BME280;66044;53.142;17.962;2023-10-08T04:04:42;101197.72;;;7.79;63.92
77019;BME280;66044;53.142;17.962;2023-10-08T04:07:20;101204.10;;;7.74;63.97
77019;BME280;66044;53.142;17.962;2023-10-08T04:10:00;101208.31;;;7.69;64.11
77019;BME280;66044;53.142;17.962;2023-10-08T04:12:36;101211.92;;;7.64;63.87
77019;BME280;66044;53.142;17.962;2023-10-08T04:15:08;101217.60;;;7.60;63.90
77019;BME280;66044;53.142;17.962;2023-10-08T04:17:37;101226.33;;;7.56;64.31
77019;BME280;66044;53.142;17.962;2023-10-08T04:20:13;101232.21;;;7.52;64.07
77019;BME280;66044;53.142;17.962;2023-10-08T04:23:00;101232.75;;;7.49;64.07
77019;BME280;66044;53.142;17.962;2023-10-08T04:25:29;101234.17;;;7.46;64.78
77019;BME280;66044;53.142;17.962;2023-10-08T04:27:56;101238.58;;;7.43;64.47
77019;BME280;66044;53.142;17.962;2023-10-08T04:30:31;101237.32;;;7.39;64.51
77019;BME280;66044;53.142;17.962;2023-10-08T04:33:03;101234.91;;;7.36;65.12
77019;BME280;66044;53.142;17.962;2023-10-08T04:35:37;101239.02;;;7.33;64.95
77019;BME280;66044;53.142;17.962;2023-10-08T04:38:10;101244.23;;;7.30;64.71
77019;BME280;66044;53.142;17.962;2023-10-08T04:40:37;101245.42;;;7.27;64.96
77019;BME280;66044;53.142;17.962;2023-10-08T04:43:15;101251.33;;;7.24;64.69
77019;BME280;66044;53.142;17.962;2023-10-08T04:45:48;101254.27;;;7.21;64.66
77019;BME280;66044;53.142;17.962;2023-10-08T04:48:15;101258.20;;;7.18;64.73
77019;BME280;66044;53.142;17.962;2023-10-08T04:50:47;101264.40;;;7.14;65.13
77019;BME280;66044;53.142;17.962;2023-10-08T04:55:59;101270.19;;;7.08;65.23
77019;BME280;66044;53.142;17.962;2023-10-08T04:58:34;101275.70;;;7.04;65.15
77019;BME280;66044;53.142;17.962;2023-10-08T05:01:03;101274.52;;;7.00;65.27
77019;BME280;66044;53.142;17.962;2023-10-08T05:03:53;101274.89;;;6.95;65.33
77019;BME280;66044;53.142;17.962;2023-10-08T05:06:27;101277.71;;;6.92;65.39
77019;BME280;66044;53.142;17.962;2023-10-08T05:09:13;101283.47;;;6.89;65.74
77019;BME280;66044;53.142;17.962;2023-10-08T05:11:47;101290.58;;;6.89;65.59
77019;BME280;66044;53.142;17.962;2023-10-08T05:14:21;101301.53;;;6.88;65.76
77019;BME280;66044;53.142;17.962;2023-10-08T05:17:14;101306.83;;;6.88;65.62
77019;BME280;66044;53.142;17.962;2023-10-08T05:19:46;101309.48;;;6.89;65.62
77019;BME280;66044;53.142;17.962;2023-10-08T05:22:42;101315.88;;;6.90;65.70
77019;BME280;66044;53.142;17.962;2023-10-08T05:25:10;101320.23;;;6.92;65.95
77019;BME280;66044;53.142;17.962;2023-10-08T05:27:44;101326.24;;;6.93;65.70
77019;BME280;66044;53.142;17.962;2023-10-08T05:30:15;101331.73;;;6.94;65.92
77019;BME280;66044;53.142;17.962;2023-10-08T05:32:44;101338.67;;;6.96;65.75
77019;BME280;66044;53.142;17.962;2023-10-08T05:35:30;101340.14;;;6.98;65.85
77019;BME280;66044;53.142;17.962;2023-10-08T05:38:19;101350.34;;;7.02;65.78
77019;BME280;66044;53.142;17.962;2023-10-08T05:40:54;101362.48;;;7.06;65.82
77019;BME280;66044;53.142;17.962;2023-10-08T05:46:14;101372.56;;;7.13;66.01
77019;BME280;66044;53.142;17.962;2023-10-08T05:48:54;101372.34;;;7.16;65.55
77019;BME280;66044;53.142;17.962;2023-10-08T05:51:35;101380.58;;;7.21;65.89
77019;BME280;66044;53.142;17.962;2023-10-08T05:54:18;101385.38;;;7.26;65.72
77019;BME280;66044;53.142;17.962;2023-10-08T05:57:11;101392.60;;;7.35;65.71
77019;BME280;66044;53.142;17.962;2023-10-08T05:59:40;101400.28;;;7.45;65.56
77019;BME280;66044;53.142;17.962;2023-10-08T06:05:09;101413.72;;;7.69;65.15
77019;BME280;66044;53.142;17.962;2023-10-08T06:10:25;101426.14;;;8.07;64.57
77019;BME280;66044;53.142;17.962;2023-10-08T06:13:03;101427.35;;;8.34;64.02
77019;BME280;66044;53.142;17.962;2023-10-08T06:15:46;101432.77;;;8.82;63.28
77019;BME280;66044;53.142;17.962;2023-10-08T06:18:27;101443.27;;;10.35;61.67
77019;BME280;66044;53.142;17.962;2023-10-08T06:21:00;101447.70;;;12.35;59.26
77019;BME280;66044;53.142;17.962;2023-10-08T06:23:28;101456.95;;;14.26;56.71
77019;BME280;66044;53.142;17.962;2023-10-08T06:25:55;101461.90;;;15.97;54.51
77019;BME280;66044;53.142;17.962;2023-10-08T06:28:32;101467.39;;;17.60;51.90
77019;BME280;66044;53.142;17.962;2023-10-08T06:31:02;101476.06;;;18.37;50.25
77019;BME280;66044;53.142;17.962;2023-10-08T06:33:33;101477.50;;;18.46;48.70
77019;BME280;66044;53.142;17.962;2023-10-08T06:36:00;101481.36;;;19.55;46.77
77019;BME280;66044;53.142;17.962;2023-10-08T06:38:41;101486.75;;;20.97;44.60
77019;BME280;66044;53.142;17.962;2023-10-08T06:41:12;101501.33;;;22.24;42.88
77019;BME280;66044;53.142;17.962;2023-10-08T06:43:45;101518.13;;;23.39;40.62
77019;BME280;66044;53.142;17.962;2023-10-08T06:46:31;101524.65;;;24.63;38.61
77019;BME280;66044;53.142;17.962;2023-10-08T06:48:59;101533.98;;;25.75;37.23
77019;BME280;66044;53.142;17.962;2023-10-08T06:51:26;101534.92;;;26.83;35.83
77019;BME280;66044;53.142;17.962;2023-10-08T06:53:52;101545.54;;;27.87;33.89
77019;BME280;66044;53.142;17.962;2023-10-08T06:56:20;101550.19;;;28.88;32.31
77019;BME280;66044;53.142;17.962;2023-10-08T06:58:46;101552.67;;;29.75;31.08
77019;BME280;66044;53.142;17.962;2023-10-08T07:01:20;101555.54;;;30.57;29.73
77019;BME280;66044;53.142;17.962;2023-10-08T07:03:55;101549.63;;;31.25;28.75
77019;BME280;66044;53.142;17.962;2023-10-08T07:06:29;101554.67;;;32.07;27.73
77019;BME280;66044;53.142;17.962;2023-10-08T07:09:01;101554.81;;;32.73;26.53
77019;BME280;66044;53.142;17.962;2023-10-08T07:11:32;101565.00;;;33.17;25.47
77019;BME280;66044;53.142;17.962;2023-10-08T07:14:01;101567.88;;;33.61;24.70
77019;BME280;66044;53.142;17.962;2023-10-08T07:16:32;101567.02;;;34.12;24.29
77019;BME280;66044;53.142;17.962;2023-10-08T07:18:59;101572.40;;;34.73;23.38
77019;BME280;66044;53.142;17.962;2023-10-08T07:21:41;101583.64;;;35.40;22.47
77019;BME280;66044;53.142;17.962;2023-10-08T07:24:15;101584.25;;;35.62;21.92
77019;BME280;66044;53.142;17.962;2023-10-08T07:26:44;101586.78;;;36.00;21.33
77019;BME280;66044;53.142;17.962;2023-10-08T07:29:14;101589.46;;;36.31;20.73
77019;BME280;66044;53.142;17.962;2023-10-08T07:31:47;101590.30;;;36.65;20.41
77019;BME280;66044;53.142;17.962;2023-10-08T07:34:20;101596.80;;;37.03;19.69
77019;BME280;66044;53.142;17.962;2023-10-08T07:36:50;101600.83;;;37.34;19.35
77019;BME280;66044;53.142;17.962;2023-10-08T07:39:22;101606.71;;;37.63;18.95
77019;BME280;66044;53.142;17.962;2023-10-08T07:42:00;101613.77;;;37.77;18.45
77019;BME280;66044;53.142;17.962;2023-10-08T07:44:27;101612.13;;;37.63;18.09
77019;BME280;66044;53.142;17.962;2023-10-08T07:46:58;101609.30;;;37.51;17.81
77019;BME280;66044;53.142;17.962;2023-10-08T07:49:26;101614.04;;;37.87;17.68
77019;BME280;66044;53.142;17.962;2023-10-08T07:51:57;101617.52;;;37.81;17.23
77019;BME280;66044;53.142;17.962;2023-10-08T07:54:26;101611.13;;;37.95;17.28
77019;BME280;66044;53.142;17.962;2023-10-08T07:56:56;101614.86;;;38.01;16.83
77019;BME280;66044;53.142;17.962;2023-10-08T07:59:39;101614.06;;;38.27;16.58
77019;BME280;66044;53.142;17.962;2023-10-08T08:02:17;101622.47;;;38.67;16.50
77019;BME280;66044;53.142;17.962;2023-10-08T08:04:50;101619.34;;;38.67;16.27
77019;BME280;66044;53.142;17.962;2023-10-08T08:07:17;101624.98;;;38.53;16.22
77019;BME280;66044;53.142;17.962;2023-10-08T08:09:48;101625.36;;;38.17;15.93
77019;BME280;66044;53.142;17.962;2023-10-08T08:12:19;101627.64;;;37.76;15.96
77019;BME280;66044;53.142;17.962;2023-10-08T08:14:48;101623.89;;;37.36;16.19
77019;BME280;66044;53.142;17.962;2023-10-08T08:17:15;101612.00;;;35.96;15.78
77019;BME280;66044;53.142;17.962;2023-10-08T08:19:46;101611.17;;;33.90;16.72
77019;BME280;66044;53.142;17.962;2023-10-08T08:22:14;101610.86;;;31.82;17.85
77019;BME280;66044;53.142;17.962;2023-10-08T08:24:48;101611.52;;;29.75;18.73
77019;BME280;66044;53.142;17.962;2023-10-08T08:27:19;101612.66;;;27.73;19.74
77019;BME280;66044;53.142;17.962;2023-10-08T08:29:58;101606.87;;;25.82;21.14
77019;BME280;66044;53.142;17.962;2023-10-08T08:32:37;101615.59;;;24.25;22.32
77019;BME280;66044;53.142;17.962;2023-10-08T08:35:07;101611.05;;;22.83;23.51
77019;BME280;66044;53.142;17.962;2023-10-08T08:37:34;101611.08;;;21.66;24.55
77019;BME280;66044;53.142;17.962;2023-10-08T08:40:03;101611.55;;;20.89;25.72
77019;BME280;66044;53.142;17.962;2023-10-08T08:42:45;101614.44;;;20.25;26.47
77019;BME280;66044;53.142;17.962;2023-10-08T08:45:22;101617.15;;;19.66;27.19
77019;BME280;66044;53.142;17.962;2023-10-08T08:47:49;101614.77;;;19.05;27.80
77019;BME280;66044;53.142;17.962;2023-10-08T08:50:16;101615.00;;;18.48;28.58
77019;BME280;66044;53.142;17.962;2023-10-08T08:52:43;101613.71;;;18.02;28.98
77019;BME280;66044;53.142;17.962;2023-10-08T08:55:12;101614.77;;;17.60;29.71
77019;BME280;66044;53.142;17.962;2023-10-08T08:57:46;101616.75;;;17.32;30.16
77019;BME280;66044;53.142;17.962;2023-10-08T09:00:14;101615.95;;;16.97;30.53
77019;BME280;66044;53.142;17.962;2023-10-08T09:02:41;101616.69;;;16.66;30.89
77019;BME280;66044;53.142;17.962;2023-10-08T09:05:08;101623.28;;;16.36;31.16
77019;BME280;66044;53.142;17.962;2023-10-08T09:08:01;101620.19;;;15.99;31.32
77019;BME280;66044;53.142;17.962;2023-10-08T09:10:33;101625.55;;;15.69;32.21
77019;BME280;66044;53.142;17.962;2023-10-08T09:13:21;101624.70;;;15.54;32.69
77019;BME280;66044;53.142;17.962;2023-10-08T09:15:51;101626.97;;;15.39;33.12
77019;BME280;66044;53.142;17.962;2023-10-08T09:18:20;101625.84;;;15.26;32.99
77019;BME280;66044;53.142;17.962;2023-10-08T09:20:47;101626.93;;;15.14;33.61
77019;BME280;66044;53.142;17.962;2023-10-08T09:23:16;101628.14;;;15.08;34.27
77019;BME280;66044;53.142;17.962;2023-10-08T09:25:45;101629.45;;;15.06;34.15
77019;BME280;66044;53.142;17.962;2023-10-08T09:28:12;101632.56;;;15.02;34.36
77019;BME280;66044;53.142;17.962;2023-10-08T09:30:41;101638.64;;;15.01;34.29
77019;BME280;66044;53.142;17.962;2023-10-08T09:33:12;101635.41;;;14.95;34.44
77019;BME280;66044;53.142;17.962;2023-10-08T09:35:39;101640.34;;;14.89;34.48
77019;BME280;66044;53.142;17.962;2023-10-08T09:38:07;101636.02;;;14.87;34.81
77019;BME280;66044;53.142;17.962;2023-10-08T09:40:41;101630.59;;;14.80;34.60
77019;BME280;66044;53.142;17.962;2023-10-08T09:43:10;101630.49;;;14.76;34.77
77019;BME280;66044;53.142;17.962;2023-10-08T09:45:38;101635.81;;;14.77;34.44
77019;BME280;66044;53.142;17.962;2023-10-08T09:48:11;101639.95;;;14.75;34.32
77019;BME280;66044;53.142;17.962;2023-10-08T09:50:41;101640.20;;;14.73;34.72
77019;BME280;66044;53.142;17.962;2023-10-08T09:53:12;101641.58;;;14.74;34.63
77019;BME280;66044;53.142;17.962;2023-10-08T09:55:55;101651.56;;;14.77;34.39
77019;BME280;66044;53.142;17.962;2023-10-08T09:58:23;101653.75;;;14.69;34.31
77019;BME280;66044;53.142;17.962;2023-10-08T10:00:52;101656.65;;;14.68;34.70
77019;BME280;66044;53.142;17.962;2023-10-08T10:03:21;101655.69;;;14.65;34.31
77019;BME280;66044;53.142;17.962;2023-10-08T10:05:49;101655.27;;;14.52;34.27
77019;BME280;66044;53.142;17.962;2023-10-08T10:08:21;101655.53;;;14.40;34.52
77019;BME280;66044;53.142;17.962;2023-10-08T10:10:58;101654.27;;;14.27;34.76
77019;BME280;66044;53.142;17.962;2023-10-08T10:13:29;101659.21;;;14.22;34.98
77019;BME280;66044;53.142;17.962;2023-10-08T10:16:00;101656.83;;;14.18;35.27
77019;BME280;66044;53.142;17.962;2023-10-08T10:18:27;101663.18;;;14.09;35.35
77019;BME280;66044;53.142;17.962;2023-10-08T10:23:43;101662.07;;;14.05;35.58
77019;BME280;66044;53.142;17.962;2023-10-08T10:26:32;101662.59;;;14.02;35.87
77019;BME280;66044;53.142;17.962;2023-10-08T10:31:44;101659.88;;;14.06;35.85
77019;BME280;66044;53.142;17.962;2023-10-08T10:34:16;101654.64;;;14.06;35.81
77019;BME280;66044;53.142;17.962;2023-10-08T10:36:46;101655.30;;;14.07;36.02
77019;BME280;66044;53.142;17.962;2023-10-08T10:39:21;101652.89;;;14.09;36.02
77019;BME280;66044;53.142;17.962;2023-10-08T10:42:00;101656.09;;;14.13;36.19
77019;BME280;66044;53.142;17.962;2023-10-08T10:44:33;101660.98;;;14.12;36.21
77019;BME280;66044;53.142;17.962;2023-10-08T10:47:03;101660.96;;;14.10;36.12
77019;BME280;66044;53.142;17.962;2023-10-08T10:49:48;101665.79;;;14.09;36.32
77019;BME280;66044;53.142;17.962;2023-10-08T10:52:25;101660.41;;;14.11;36.11
77019;BME280;66044;53.142;17.962;2023-10-08T10:55:02;101660.35;;;14.12;36.17
77019;BME280;66044;53.142;17.962;2023-10-08T10:57:50;101658.51;;;14.12;35.55
77019;BME280;66044;53.142;17.962;2023-10-08T11:00:31;101665.17;;;14.03;34.58
77019;BME280;66044;53.142;17.962;2023-10-08T11:03:02;101666.47;;;13.90;33.55
77019;BME280;66044;53.142;17.962;2023-10-08T11:05:34;101672.08;;;13.76;33.29
77019;BME280;66044;53.142;17.962;2023-10-08T11:08:06;101672.71;;;13.71;33.71
77019;BME280;66044;53.142;17.962;2023-10-08T11:10:37;101671.21;;;13.63;33.87
77019;BME280;66044;53.142;17.962;2023-10-08T11:13:05;101669.08;;;13.51;34.05
77019;BME280;66044;53.142;17.962;2023-10-08T11:15:42;101673.20;;;13.44;34.41
77019;BME280;66044;53.142;17.962;2023-10-08T11:18:13;101677.74;;;13.44;34.41
77019;BME280;66044;53.142;17.962;2023-10-08T11:20:44;101680.63;;;13.41;33.65
77019;BME280;66044;53.142;17.962;2023-10-08T11:23:33;101682.77;;;13.37;33.25
77019;BME280;66044;53.142;17.962;2023-10-08T11:26:01;101671.88;;;13.30;32.94
77019;BME280;66044;53.142;17.962;2023-10-08T11:28:38;101675.36;;;13.25;32.84
77019;BME280;66044;53.142;17.962;2023-10-08T11:31:17;101679.69;;;13.24;32.69
77019;BME280;66044;53.142;17.962;2023-10-08T11:33:47;101678.17;;;13.22;32.81
77019;BME280;66044;53.142;17.962;2023-10-08T11:36:23;101682.97;;;13.21;32.62
77019;BME280;66044;53.142;17.962;2023-10-08T11:39:09;101682.90;;;13.17;32.38
77019;BME280;66044;53.142;17.962;2023-10-08T11:41:37;101678.74;;;13.16;32.41
77019;BME280;66044;53.142;17.962;2023-10-08T11:44:17;101686.60;;;13.16;32.20
77019;BME280;66044;53.142;17.962;2023-10-08T11:46:46;101687.36;;;13.16;32.14
77019;BME280;66044;53.142;17.962;2023-10-08T11:49:19;101682.05;;;13.15;32.40
77019;BME280;66044;53.142;17.962;2023-10-08T11:51:46;101689.79;;;13.16;32.41
77019;BME280;66044;53.142;17.962;2023-10-08T11:54:12;101688.23;;;13.16;32.34
77019;BME280;66044;53.142;17.962;2023-10-08T11:56:40;101688.60;;;13.13;32.22
77019;BME280;66044;53.142;17.962;2023-10-08T11:59:07;101678.99;;;13.08;32.06
77019;BME280;66044;53.142;17.962;2023-10-08T12:01:38;101688.02;;;13.05;32.19
77019;BME280;66044;53.142;17.962;2023-10-08T12:04:09;101685.61;;;13.06;32.63
77019;BME280;66044;53.142;17.962;2023-10-08T12:06:42;101689.23;;;13.09;32.60
77019;BME280;66044;53.142;17.962;2023-10-08T12:09:14;101688.20;;;13.09;32.56
77019;BME280;66044;53.142;17.962;2023-10-08T12:11:40;101693.86;;;13.11;32.66
77019;BME280;66044;53.142;17.962;2023-10-08T12:14:07;101698.67;;;13.15;32.70
77019;BME280;66044;53.142;17.962;2023-10-08T12:16:36;101700.23;;;13.19;32.83
77019;BME280;66044;53.142;17.962;2023-10-08T12:19:02;101704.23;;;13.21;32.49
77019;BME280;66044;53.142;17.962;2023-10-08T12:21:42;101703.37;;;13.19;32.30
77019;BME280;66044;53.142;17.962;2023-10-08T12:24:12;101701.05;;;13.18;32.18
77019;BME280;66044;53.142;17.962;2023-10-08T12:26:40;101705.00;;;13.22;32.14
77019;BME280;66044;53.142;17.962;2023-10-08T12:29:12;101709.88;;;13.23;31.57
77019;BME280;66044;53.142;17.962;2023-10-08T12:31:41;101709.05;;;13.20;31.30
77019;BME280;66044;53.142;17.962;2023-10-08T12:34:07;101707.46;;;13.19;31.12
77019;BME280;66044;53.142;17.962;2023-10-08T12:36:37;101707.63;;;13.15;30.92
77019;BME280;66044;53.142;17.962;2023-10-08T12:39:04;101713.64;;;13.12;31.19
77019;BME280;66044;53.142;17.962;2023-10-08T12:41:51;101714.05;;;13.11;31.33
77019;BME280;66044;53.142;17.962;2023-10-08T12:44:19;101708.47;;;13.12;31.63
77019;BME280;66044;53.142;17.962;2023-10-08T12:46:46;101711.50;;;13.11;31.60
77019;BME280;66044;53.142;17.962;2023-10-08T12:49:15;101711.91;;;13.12;31.60
77019;BME280;66044;53.142;17.962;2023-10-08T12:51:41;101714.10;;;13.14;31.62
77019;BME280;66044;53.142;17.962;2023-10-08T12:54:11;101716.79;;;13.17;31.77
77019;BME280;66044;53.142;17.962;2023-10-08T12:56:40;101715.83;;;13.21;31.65
77019;BME280;66044;53.142;17.962;2023-10-08T12:59:15;101713.56;;;13.22;31.65
77019;BME280;66044;53.142;17.962;2023-10-08T13:02:02;101715.08;;;13.26;31.53
77019;BME280;66044;53.142;17.962;2023-10-08T13:04:33;101714.67;;;13.23;31.67
77019;BME280;66044;53.142;17.962;2023-10-08T13:07:01;101710.02;;;13.23;31.79
77019;BME280;66044;53.142;17.962;2023-10-08T13:09:29;101714.36;;;13.21;32.04
77019;BME280;66044;53.142;17.962;2023-10-08T13:12:04;101705.70;;;13.19;32.06
77019;BME280;66044;53.142;17.962;2023-10-08T13:14:30;101709.18;;;13.20;32.21
77019;BME280;66044;53.142;17.962;2023-10-08T13:16:57;101702.80;;;13.20;32.24
77019;BME280;66044;53.142;17.962;2023-10-08T13:19:23;101702.55;;;13.21;32.53
77019;BME280;66044;53.142;17.962;2023-10-08T13:21:52;101708.19;;;13.25;32.85
77019;BME280;66044;53.142;17.962;2023-10-08T13:24:19;101719.22;;;13.28;32.56
77019;BME280;66044;53.142;17.962;2023-10-08T13:26:46;101721.70;;;13.28;32.39